sensor_id;sensor_type;location;lat;lon;timestamp;temperature;humidity
62589;DHT22;58504;48.770;9.148;2023-02-07T00:00:20;20.00;45.40
62589;DHT22;58504;48.770;9.148;2023-02-07T00:02:48;20.00;45.40
62589;DHT22;58504;48.770;9.148;2023-02-07T00:05:15;20.00;45.40
62589;DHT22;58504;48.770;9.148;2023-02-07T00:07:42;19.90;45.40
62589;DHT22;58504;48.770;9.148;2023-02-07T00:10:09;19.90;45.40
62589;DHT22;58504;48.770;9.148;2023-02-07T00:12:36;19.90;45.40
62589;DHT22;58504;48.770;9.148;2023-02-07T00:15:05;19.80;45.30
62589;DHT22;58504;48.770;9.148;2023-02-07T00:17:32;19.80;45.40
62589;DHT22;58504;48.770;9.148;2023-02-07T00:19:59;19.70;45.40
62589;DHT22;58504;48.770;9.148;2023-02-07T00:22:26;19.70;45.40
62589;DHT22;58504;48.770;9.148;2023-02-07T00:24:53;19.60;45.40
62589;DHT22;58504;48.770;9.148;2023-02-07T00:27:19;19.70;45.60
62589;DHT22;58504;48.770;9.148;2023-02-07T00:29:46;19.60;45.60
62589;DHT22;58504;48.770;9.148;2023-02-07T00:32:15;19.60;45.70
62589;DHT22;58504;48.770;9.148;2023-02-07T00:34:44;19.50;45.60
62589;DHT22;58504;48.770;9.148;2023-02-07T00:37:11;19.50;45.60
62589;DHT22;58504;48.770;9.148;2023-02-07T00:39:38;19.50;45.70
62589;DHT22;58504;48.770;9.148;2023-02-07T00:42:05;19.50;45.80
62589;DHT22;58504;48.770;9.148;2023-02-07T00:44:32;19.40;45.80
62589;DHT22;58504;48.770;9.148;2023-02-07T00:46:59;19.50;45.80
62589;DHT22;58504;48.770;9.148;2023-02-07T00:49:27;19.40;45.80
62589;DHT22;58504;48.770;9.148;2023-02-07T00:51:54;19.40;45.80
62589;DHT22;58504;48.770;9.148;2023-02-07T00:54:20;19.40;45.90
62589;DHT22;58504;48.770;9.148;2023-02-07T00:56:47;19.40;46.00
62589;DHT22;58504;48.770;9.148;2023-02-07T00:59:14;19.40;46.00
62589;DHT22;58504;48.770;9.148;2023-02-07T01:01:41;19.30;45.90
62589;DHT22;58504;48.770;9.148;2023-02-07T01:04:07;19.30;46.00
62589;DHT22;58504;48.770;9.148;2023-02-07T01:06:35;19.30;46.00
62589;DHT22;58504;48.770;9.148;2023-02-07T01:09:04;19.30;46.10
62589;DHT22;58504;48.770;9.148;2023-02-07T01:11:31;19.30;46.20
62589;DHT22;58504;48.770;9.148;2023-02-07T01:13:58;19.20;46.10
62589;DHT22;58504;48.770;9.148;2023-02-07T01:16:27;19.20;46.20
62589;DHT22;58504;48.770;9.148;2023-02-07T01:18:55;19.20;46.20
62589;DHT22;58504;48.770;9.148;2023-02-07T01:21:23;19.20;46.20
62589;DHT22;58504;48.770;9.148;2023-02-07T01:23:52;19.20;46.20
62589;DHT22;58504;48.770;9.148;2023-02-07T01:26:22;19.10;46.10
62589;DHT22;58504;48.770;9.148;2023-02-07T01:28:48;19.10;46.20
62589;DHT22;58504;48.770;9.148;2023-02-07T01:31:15;19.10;46.10
62589;DHT22;58504;48.770;9.148;2023-02-07T01:33:42;19.10;46.20
62589;DHT22;58504;48.770;9.148;2023-02-07T01:36:11;19.10;46.20
62589;DHT22;58504;48.770;9.148;2023-02-07T01:38:39;19.10;46.30
62589;DHT22;58504;48.770;9.148;2023-02-07T01:41:07;19.10;46.30
62589;DHT22;58504;48.770;9.148;2023-02-07T01:43:34;19.00;46.30
62589;DHT22;58504;48.770;9.148;2023-02-07T01:46:17;19.00;46.30
62589;DHT22;58504;48.770;9.148;2023-02-07T01:48:44;19.00;46.30
62589;DHT22;58504;48.770;9.148;2023-02-07T01:51:11;19.00;46.40
62589;DHT22;58504;48.770;9.148;2023-02-07T01:53:39;19.00;46.40
62589;DHT22;58504;48.770;9.148;2023-02-07T01:56:09;18.90;46.40
62589;DHT22;58504;48.770;9.148;2023-02-07T01:58:37;18.90;46.40
62589;DHT22;58504;48.770;9.148;2023-02-07T02:01:09;18.90;46.50
62589;DHT22;58504;48.770;9.148;2023-02-07T02:03:39;18.90;46.40
62589;DHT22;58504;48.770;9.148;2023-02-07T02:06:09;18.90;46.50
62589;DHT22;58504;48.770;9.148;2023-02-07T02:08:37;18.90;46.50
62589;DHT22;58504;48.770;9.148;2023-02-07T02:11:19;18.90;46.50
62589;DHT22;58504;48.770;9.148;2023-02-07T02:13:55;18.80;46.30
62589;DHT22;58504;48.770;9.148;2023-02-07T02:16:29;18.80;46.40
62589;DHT22;58504;48.770;9.148;2023-02-07T02:19:24;18.80;46.20
62589;DHT22;58504;48.770;9.148;2023-02-07T02:22:16;18.80;46.20
62589;DHT22;58504;48.770;9.148;2023-02-07T02:28:10;18.70;46.30
62589;DHT22;58504;48.770;9.148;2023-02-07T02:31:03;18.70;46.20
62589;DHT22;58504;48.770;9.148;2023-02-07T02:33:47;18.70;46.20
62589;DHT22;58504;48.770;9.148;2023-02-07T02:36:21;18.60;46.20
62589;DHT22;58504;48.770;9.148;2023-02-07T02:38:57;18.60;46.30
62589;DHT22;58504;48.770;9.148;2023-02-07T02:41:30;18.60;46.30
62589;DHT22;58504;48.770;9.148;2023-02-07T02:44:05;18.60;46.30
62589;DHT22;58504;48.770;9.148;2023-02-07T02:46:34;18.60;46.40
62589;DHT22;58504;48.770;9.148;2023-02-07T02:49:04;18.60;46.40
62589;DHT22;58504;48.770;9.148;2023-02-07T02:51:33;18.50;46.40
62589;DHT22;58504;48.770;9.148;2023-02-07T02:54:00;18.60;46.50
62589;DHT22;58504;48.770;9.148;2023-02-07T02:56:42;18.50;46.40
62589;DHT22;58504;48.770;9.148;2023-02-07T03:02:20;18.50;46.50
62589;DHT22;58504;48.770;9.148;2023-02-07T03:05:10;18.40;46.50
62589;DHT22;58504;48.770;9.148;2023-02-07T03:07:49;18.40;46.50
62589;DHT22;58504;48.770;9.148;2023-02-07T03:10:23;18.40;46.50
62589;DHT22;58504;48.770;9.148;2023-02-07T03:12:57;18.40;46.60
62589;DHT22;58504;48.770;9.148;2023-02-07T03:15:32;18.40;46.60
62589;DHT22;58504;48.770;9.148;2023-02-07T03:18:04;18.40;46.70
62589;DHT22;58504;48.770;9.148;2023-02-07T03:20:37;18.30;46.60
62589;DHT22;58504;48.770;9.148;2023-02-07T03:23:08;18.30;46.60
62589;DHT22;58504;48.770;9.148;2023-02-07T03:25:36;18.30;46.60
62589;DHT22;58504;48.770;9.148;2023-02-07T03:28:05;18.30;46.70
62589;DHT22;58504;48.770;9.148;2023-02-07T03:30:34;18.30;46.70
62589;DHT22;58504;48.770;9.148;2023-02-07T03:33:05;18.30;46.70
62589;DHT22;58504;48.770;9.148;2023-02-07T03:35:41;18.30;46.80
62589;DHT22;58504;48.770;9.148;2023-02-07T03:38:11;18.30;46.80
62589;DHT22;58504;48.770;9.148;2023-02-07T03:40:40;18.30;46.80
62589;DHT22;58504;48.770;9.148;2023-02-07T03:43:12;18.20;46.80
62589;DHT22;58504;48.770;9.148;2023-02-07T03:45:40;18.20;46.80
62589;DHT22;58504;48.770;9.148;2023-02-07T03:48:08;18.20;46.80
62589;DHT22;58504;48.770;9.148;2023-02-07T03:50:34;18.20;46.90
62589;DHT22;58504;48.770;9.148;2023-02-07T03:53:03;18.20;46.80
62589;DHT22;58504;48.770;9.148;2023-02-07T03:55:30;18.20;46.90
62589;DHT22;58504;48.770;9.148;2023-02-07T03:57:57;18.20;47.50
62589;DHT22;58504;48.770;9.148;2023-02-07T04:00:24;18.10;46.90
62589;DHT22;58504;48.770;9.148;2023-02-07T04:02:51;18.10;47.00
62589;DHT22;58504;48.770;9.148;2023-02-07T04:05:17;18.10;47.00
62589;DHT22;58504;48.770;9.148;2023-02-07T04:07:44;18.10;47.00
62589;DHT22;58504;48.770;9.148;2023-02-07T04:10:12;18.10;47.00
62589;DHT22;58504;48.770;9.148;2023-02-07T04:12:39;18.10;47.00
62589;DHT22;58504;48.770;9.148;2023-02-07T04:15:07;18.10;47.10
62589;DHT22;58504;48.770;9.148;2023-02-07T04:17:34;18.10;47.10
62589;DHT22;58504;48.770;9.148;2023-02-07T04:20:01;18.10;47.10
62589;DHT22;58504;48.770;9.148;2023-02-07T04:22:28;18.10;47.20
62589;DHT22;58504;48.770;9.148;2023-02-07T04:24:55;18.00;47.10
62589;DHT22;58504;48.770;9.148;2023-02-07T04:27:24;18.00;47.10
62589;DHT22;58504;48.770;9.148;2023-02-07T04:29:50;18.00;47.20
62589;DHT22;58504;48.770;9.148;2023-02-07T04:32:17;18.10;47.60
62589;DHT22;58504;48.770;9.148;2023-02-07T04:34:44;18.10;47.40
62589;DHT22;58504;48.770;9.148;2023-02-07T04:37:11;18.30;47.30
62589;DHT22;58504;48.770;9.148;2023-02-07T04:39:37;18.40;47.00
62589;DHT22;58504;48.770;9.148;2023-02-07T04:42:04;18.60;46.90
62589;DHT22;58504;48.770;9.148;2023-02-07T04:44:33;18.70;46.80
62589;DHT22;58504;48.770;9.148;2023-02-07T04:47:00;18.90;46.70
62589;DHT22;58504;48.770;9.148;2023-02-07T04:49:26;19.10;46.50
62589;DHT22;58504;48.770;9.148;2023-02-07T04:51:53;19.20;46.20
62589;DHT22;58504;48.770;9.148;2023-02-07T04:54:20;19.40;46.00
62589;DHT22;58504;48.770;9.148;2023-02-07T04:56:47;19.50;45.80
62589;DHT22;58504;48.770;9.148;2023-02-07T04:59:14;19.60;45.70
62589;DHT22;58504;48.770;9.148;2023-02-07T05:01:42;19.70;45.50
62589;DHT22;58504;48.770;9.148;2023-02-07T05:04:08;19.80;45.40
62589;DHT22;58504;48.770;9.148;2023-02-07T05:06:35;19.90;45.20
62589;DHT22;58504;48.770;9.148;2023-02-07T05:09:02;20.00;45.10
62589;DHT22;58504;48.770;9.148;2023-02-07T05:11:29;20.10;44.90
62589;DHT22;58504;48.770;9.148;2023-02-07T05:13:56;20.20;44.90
62589;DHT22;58504;48.770;9.148;2023-02-07T05:16:23;20.30;44.80
62589;DHT22;58504;48.770;9.148;2023-02-07T05:18:51;20.40;44.70
62589;DHT22;58504;48.770;9.148;2023-02-07T05:21:17;20.50;44.70
62589;DHT22;58504;48.770;9.148;2023-02-07T05:23:44;20.60;44.60
62589;DHT22;58504;48.770;9.148;2023-02-07T05:26:11;20.60;44.40
62589;DHT22;58504;48.770;9.148;2023-02-07T05:28:38;20.60;44.20
62589;DHT22;58504;48.770;9.148;2023-02-07T05:31:05;20.70;44.30
62589;DHT22;58504;48.770;9.148;2023-02-07T05:33:32;20.80;44.20
62589;DHT22;58504;48.770;9.148;2023-02-07T05:35:59;20.90;44.20
62589;DHT22;58504;48.770;9.148;2023-02-07T05:38:27;20.90;44.10
62589;DHT22;58504;48.770;9.148;2023-02-07T05:40:54;21.00;44.00
62589;DHT22;58504;48.770;9.148;2023-02-07T05:43:21;21.10;44.00
62589;DHT22;58504;48.770;9.148;2023-02-07T05:45:48;21.00;43.90
62589;DHT22;58504;48.770;9.148;2023-02-07T05:48:14;21.10;43.80
62589;DHT22;58504;48.770;9.148;2023-02-07T05:50:41;21.20;43.80
62589;DHT22;58504;48.770;9.148;2023-02-07T05:53:09;21.20;43.70
62589;DHT22;58504;48.770;9.148;2023-02-07T05:55:37;21.20;43.60
62589;DHT22;58504;48.770;9.148;2023-02-07T05:58:04;21.30;43.60
62589;DHT22;58504;48.770;9.148;2023-02-07T06:00:31;21.30;43.50
62589;DHT22;58504;48.770;9.148;2023-02-07T06:02:58;21.30;43.50
62589;DHT22;58504;48.770;9.148;2023-02-07T06:05:24;21.40;43.50
62589;DHT22;58504;48.770;9.148;2023-02-07T06:07:55;21.40;43.40
62589;DHT22;58504;48.770;9.148;2023-02-07T06:10:24;21.50;43.40
62589;DHT22;58504;48.770;9.148;2023-02-07T06:12:51;21.50;43.30
62589;DHT22;58504;48.770;9.148;2023-02-07T06:15:17;21.50;43.20
62589;DHT22;58504;48.770;9.148;2023-02-07T06:17:44;21.60;43.30
62589;DHT22;58504;48.770;9.148;2023-02-07T06:20:11;21.60;43.20
62589;DHT22;58504;48.770;9.148;2023-02-07T06:22:38;21.60;43.10
62589;DHT22;58504;48.770;9.148;2023-02-07T06:25:05;21.70;43.20
62589;DHT22;58504;48.770;9.148;2023-02-07T06:27:37;21.70;43.10
62589;DHT22;58504;48.770;9.148;2023-02-07T06:30:05;21.70;43.10
62589;DHT22;58504;48.770;9.148;2023-02-07T06:32:32;21.70;43.00
62589;DHT22;58504;48.770;9.148;2023-02-07T06:34:59;21.70;43.00
62589;DHT22;58504;48.770;9.148;2023-02-07T06:37:26;21.80;43.00
62589;DHT22;58504;48.770;9.148;2023-02-07T06:39:53;21.80;43.00
62589;DHT22;58504;48.770;9.148;2023-02-07T06:42:20;21.80;42.90
62589;DHT22;58504;48.770;9.148;2023-02-07T06:44:48;21.80;42.90
62589;DHT22;58504;48.770;9.148;2023-02-07T06:47:15;21.90;42.90
62589;DHT22;58504;48.770;9.148;2023-02-07T06:49:44;21.90;42.90
62589;DHT22;58504;48.770;9.148;2023-02-07T06:52:11;21.90;42.90
62589;DHT22;58504;48.770;9.148;2023-02-07T06:54:37;22.00;42.90
62589;DHT22;58504;48.770;9.148;2023-02-07T06:57:04;22.00;42.90
62589;DHT22;58504;48.770;9.148;2023-02-07T06:59:31;22.00;43.00
62589;DHT22;58504;48.770;9.148;2023-02-07T07:01:59;22.00;43.40
62589;DHT22;58504;48.770;9.148;2023-02-07T07:04:27;22.10;43.50
62589;DHT22;58504;48.770;9.148;2023-02-07T07:06:54;22.20;43.60
62589;DHT22;58504;48.770;9.148;2023-02-07T07:09:21;22.20;43.60
62589;DHT22;58504;48.770;9.148;2023-02-07T07:11:48;22.30;43.70
62589;DHT22;58504;48.770;9.148;2023-02-07T07:14:14;22.40;43.60
62589;DHT22;58504;48.770;9.148;2023-02-07T07:16:41;22.50;43.60
62589;DHT22;58504;48.770;9.148;2023-02-07T07:19:09;22.50;43.60
62589;DHT22;58504;48.770;9.148;2023-02-07T07:21:36;22.60;43.60
62589;DHT22;58504;48.770;9.148;2023-02-07T07:24:03;22.70;43.60
62589;DHT22;58504;48.770;9.148;2023-02-07T07:26:30;22.70;43.60
62589;DHT22;58504;48.770;9.148;2023-02-07T07:28:57;22.80;43.50
62589;DHT22;58504;48.770;9.148;2023-02-07T07:31:25;22.90;43.60
62589;DHT22;58504;48.770;9.148;2023-02-07T07:33:52;22.90;43.50
62589;DHT22;58504;48.770;9.148;2023-02-07T07:36:21;23.00;43.40
62589;DHT22;58504;48.770;9.148;2023-02-07T07:38:48;23.00;43.50
62589;DHT22;58504;48.770;9.148;2023-02-07T07:41:14;23.00;43.50
62589;DHT22;58504;48.770;9.148;2023-02-07T07:43:41;23.00;43.80
62589;DHT22;58504;48.770;9.148;2023-02-07T07:46:08;23.00;44.00
62589;DHT22;58504;48.770;9.148;2023-02-07T07:48:35;23.10;44.10
62589;DHT22;58504;48.770;9.148;2023-02-07T07:51:02;23.10;44.40
62589;DHT22;58504;48.770;9.148;2023-02-07T07:53:30;23.20;44.70
62589;DHT22;58504;48.770;9.148;2023-02-07T07:55:57;23.20;44.60
62589;DHT22;58504;48.770;9.148;2023-02-07T07:58:25;23.20;44.70
62589;DHT22;58504;48.770;9.148;2023-02-07T08:00:53;23.30;44.70
62589;DHT22;58504;48.770;9.148;2023-02-07T08:03:20;23.30;44.70
62589;DHT22;58504;48.770;9.148;2023-02-07T08:05:47;23.30;44.60
62589;DHT22;58504;48.770;9.148;2023-02-07T08:08:14;23.40;44.60
62589;DHT22;58504;48.770;9.148;2023-02-07T08:10:43;23.40;44.50
62589;DHT22;58504;48.770;9.148;2023-02-07T08:13:09;23.50;44.40
62589;DHT22;58504;48.770;9.148;2023-02-07T08:15:37;23.50;44.10
62589;DHT22;58504;48.770;9.148;2023-02-07T08:18:04;23.50;43.90
62589;DHT22;58504;48.770;9.148;2023-02-07T08:20:31;23.60;43.90
62589;DHT22;58504;48.770;9.148;2023-02-07T08:22:58;23.60;43.80
62589;DHT22;58504;48.770;9.148;2023-02-07T08:25:25;23.70;43.80
62589;DHT22;58504;48.770;9.148;2023-02-07T08:27:54;23.70;43.70
62589;DHT22;58504;48.770;9.148;2023-02-07T08:30:21;23.10;26.80
62589;DHT22;58504;48.770;9.148;2023-02-07T08:32:48;21.50;25.60
62589;DHT22;58504;48.770;9.148;2023-02-07T08:35:16;20.70;29.60
62589;DHT22;58504;48.770;9.148;2023-02-07T08:37:43;20.50;33.50
62589;DHT22;58504;48.770;9.148;2023-02-07T08:40:10;20.60;35.60
62589;DHT22;58504;48.770;9.148;2023-02-07T08:42:37;20.70;37.10
62589;DHT22;58504;48.770;9.148;2023-02-07T08:45:06;21.00;38.20
62589;DHT22;58504;48.770;9.148;2023-02-07T08:47:33;21.20;38.90
62589;DHT22;58504;48.770;9.148;2023-02-07T08:50:00;21.50;39.50
62589;DHT22;58504;48.770;9.148;2023-02-07T08:52:27;21.70;39.80
62589;DHT22;58504;48.770;9.148;2023-02-07T08:54:54;22.00;40.20
62589;DHT22;58504;48.770;9.148;2023-02-07T08:57:20;22.20;40.40
62589;DHT22;58504;48.770;9.148;2023-02-07T08:59:50;22.30;40.60
62589;DHT22;58504;48.770;9.148;2023-02-07T09:02:18;22.50;40.80
62589;DHT22;58504;48.770;9.148;2023-02-07T09:04:45;22.60;40.90
62589;DHT22;58504;48.770;9.148;2023-02-07T09:07:12;22.70;41.00
62589;DHT22;58504;48.770;9.148;2023-02-07T09:09:39;22.90;41.30
62589;DHT22;58504;48.770;9.148;2023-02-07T09:12:06;23.00;41.40
62589;DHT22;58504;48.770;9.148;2023-02-07T09:14:34;23.10;41.50
62589;DHT22;58504;48.770;9.148;2023-02-07T09:17:01;23.10;41.50
62589;DHT22;58504;48.770;9.148;2023-02-07T09:19:31;23.20;41.70
62589;DHT22;58504;48.770;9.148;2023-02-07T09:21:58;23.30;41.80
62589;DHT22;58504;48.770;9.148;2023-02-07T09:24:24;23.40;41.90
62589;DHT22;58504;48.770;9.148;2023-02-07T09:26:51;23.40;41.90
62589;DHT22;58504;48.770;9.148;2023-02-07T09:29:18;23.40;41.90
62589;DHT22;58504;48.770;9.148;2023-02-07T09:31:45;23.50;42.10
62589;DHT22;58504;48.770;9.148;2023-02-07T09:34:12;23.50;42.00
62589;DHT22;58504;48.770;9.148;2023-02-07T09:36:41;23.50;42.00
62589;DHT22;58504;48.770;9.148;2023-02-07T09:39:08;23.50;41.90
62589;DHT22;58504;48.770;9.148;2023-02-07T09:41:40;23.60;42.00
62589;DHT22;58504;48.770;9.148;2023-02-07T09:44:13;23.60;42.10
62589;DHT22;58504;48.770;9.148;2023-02-07T09:46:45;23.60;41.90
62589;DHT22;58504;48.770;9.148;2023-02-07T09:49:26;23.60;42.00
62589;DHT22;58504;48.770;9.148;2023-02-07T09:51:56;23.70;42.10
62589;DHT22;58504;48.770;9.148;2023-02-07T09:54:27;23.70;42.10
62589;DHT22;58504;48.770;9.148;2023-02-07T09:56:58;23.70;42.10
62589;DHT22;58504;48.770;9.148;2023-02-07T09:59:32;23.80;42.00
62589;DHT22;58504;48.770;9.148;2023-02-07T10:02:14;23.80;42.10
62589;DHT22;58504;48.770;9.148;2023-02-07T10:04:45;23.70;42.10
62589;DHT22;58504;48.770;9.148;2023-02-07T10:07:14;23.80;42.30
62589;DHT22;58504;48.770;9.148;2023-02-07T10:09:43;23.80;42.40
62589;DHT22;58504;48.770;9.148;2023-02-07T10:12:33;23.70;42.50
62589;DHT22;58504;48.770;9.148;2023-02-07T10:15:08;23.70;42.50
62589;DHT22;58504;48.770;9.148;2023-02-07T10:17:48;23.60;42.30
62589;DHT22;58504;48.770;9.148;2023-02-07T10:20:28;23.60;42.80
62589;DHT22;58504;48.770;9.148;2023-02-07T10:23:08;23.50;42.80
62589;DHT22;58504;48.770;9.148;2023-02-07T10:25:46;23.60;43.00
62589;DHT22;58504;48.770;9.148;2023-02-07T10:28:46;23.60;43.10
62589;DHT22;58504;48.770;9.148;2023-02-07T10:31:18;23.70;43.10
62589;DHT22;58504;48.770;9.148;2023-02-07T10:33:48;23.80;43.10
62589;DHT22;58504;48.770;9.148;2023-02-07T10:36:17;23.80;43.10
62589;DHT22;58504;48.770;9.148;2023-02-07T10:38:51;23.90;43.10
62589;DHT22;58504;48.770;9.148;2023-02-07T10:41:26;24.00;43.10
62589;DHT22;58504;48.770;9.148;2023-02-07T10:43:53;24.00;42.90
62589;DHT22;58504;48.770;9.148;2023-02-07T10:46:21;24.00;42.90
62589;DHT22;58504;48.770;9.148;2023-02-07T10:48:48;24.00;43.00
62589;DHT22;58504;48.770;9.148;2023-02-07T10:51:21;24.00;43.20
62589;DHT22;58504;48.770;9.148;2023-02-07T10:54:02;24.00;43.30
62589;DHT22;58504;48.770;9.148;2023-02-07T10:56:34;24.00;43.20
62589;DHT22;58504;48.770;9.148;2023-02-07T10:59:04;24.00;43.20
62589;DHT22;58504;48.770;9.148;2023-02-07T11:01:32;24.00;43.10
62589;DHT22;58504;48.770;9.148;2023-02-07T11:03:59;24.00;43.30
62589;DHT22;58504;48.770;9.148;2023-02-07T11:06:27;24.00;43.40
62589;DHT22;58504;48.770;9.148;2023-02-07T11:09:12;24.00;43.40
62589;DHT22;58504;48.770;9.148;2023-02-07T11:11:39;24.00;43.20
62589;DHT22;58504;48.770;9.148;2023-02-07T11:14:14;24.00;43.20
62589;DHT22;58504;48.770;9.148;2023-02-07T11:16:43;24.00;43.10
62589;DHT22;58504;48.770;9.148;2023-02-07T11:19:15;24.10;43.10
62589;DHT22;58504;48.770;9.148;2023-02-07T11:21:43;24.10;43.00
62589;DHT22;58504;48.770;9.148;2023-02-07T11:24:14;24.20;42.90
62589;DHT22;58504;48.770;9.148;2023-02-07T11:26:52;24.20;42.80
62589;DHT22;58504;48.770;9.148;2023-02-07T11:29:21;24.20;42.70
62589;DHT22;58504;48.770;9.148;2023-02-07T11:31:49;24.20;42.70
62589;DHT22;58504;48.770;9.148;2023-02-07T11:34:39;24.10;42.60
62589;DHT22;58504;48.770;9.148;2023-02-07T11:37:15;24.10;42.50
62589;DHT22;58504;48.770;9.148;2023-02-07T11:39:45;24.00;42.40
62589;DHT22;58504;48.770;9.148;2023-02-07T11:42:16;24.00;42.50
62589;DHT22;58504;48.770;9.148;2023-02-07T11:44:45;24.00;42.40
62589;DHT22;58504;48.770;9.148;2023-02-07T11:47:15;24.00;42.40
62589;DHT22;58504;48.770;9.148;2023-02-07T11:49:45;24.00;42.40
62589;DHT22;58504;48.770;9.148;2023-02-07T11:52:13;24.00;42.30
62589;DHT22;58504;48.770;9.148;2023-02-07T11:54:41;24.10;42.30
62589;DHT22;58504;48.770;9.148;2023-02-07T11:57:16;24.10;42.20
62589;DHT22;58504;48.770;9.148;2023-02-07T11:59:46;24.10;42.20
62589;DHT22;58504;48.770;9.148;2023-02-07T12:02:17;24.10;42.10
62589;DHT22;58504;48.770;9.148;2023-02-07T12:04:45;24.00;42.00
62589;DHT22;58504;48.770;9.148;2023-02-07T12:07:14;24.00;42.00
62589;DHT22;58504;48.770;9.148;2023-02-07T12:09:46;24.00;42.10
62589;DHT22;58504;48.770;9.148;2023-02-07T12:12:19;23.90;42.10
62589;DHT22;58504;48.770;9.148;2023-02-07T12:14:52;23.80;42.00
62589;DHT22;58504;48.770;9.148;2023-02-07T12:17:24;23.80;42.10
62589;DHT22;58504;48.770;9.148;2023-02-07T12:19:55;23.70;42.10
62589;DHT22;58504;48.770;9.148;2023-02-07T12:22:27;23.70;42.20
62589;DHT22;58504;48.770;9.148;2023-02-07T12:25:02;23.60;42.20
62589;DHT22;58504;48.770;9.148;2023-02-07T12:27:35;23.50;42.30
62589;DHT22;58504;48.770;9.148;2023-02-07T12:30:13;23.50;42.30
62589;DHT22;58504;48.770;9.148;2023-02-07T12:32:48;23.40;42.40
62589;DHT22;58504;48.770;9.148;2023-02-07T12:35:23;23.40;42.50
62589;DHT22;58504;48.770;9.148;2023-02-07T12:37:58;23.30;42.50
62589;DHT22;58504;48.770;9.148;2023-02-07T12:40:30;23.30;42.50
62589;DHT22;58504;48.770;9.148;2023-02-07T12:43:02;23.30;42.60
62589;DHT22;58504;48.770;9.148;2023-02-07T12:45:41;23.20;42.70
62589;DHT22;58504;48.770;9.148;2023-02-07T12:48:16;23.20;42.60
62589;DHT22;58504;48.770;9.148;2023-02-07T12:50:54;23.20;42.80
62589;DHT22;58504;48.770;9.148;2023-02-07T12:53:35;23.30;43.40
62589;DHT22;58504;48.770;9.148;2023-02-07T12:56:15;23.30;43.20
62589;DHT22;58504;48.770;9.148;2023-02-07T12:58:49;23.40;43.20
62589;DHT22;58504;48.770;9.148;2023-02-07T13:01:21;23.40;43.20
62589;DHT22;58504;48.770;9.148;2023-02-07T13:07:01;23.40;43.00
62589;DHT22;58504;48.770;9.148;2023-02-07T13:09:33;23.40;43.00
62589;DHT22;58504;48.770;9.148;2023-02-07T13:12:07;23.40;43.00
62589;DHT22;58504;48.770;9.148;2023-02-07T13:14:50;23.50;43.20
62589;DHT22;58504;48.770;9.148;2023-02-07T13:17:35;23.50;43.00
62589;DHT22;58504;48.770;9.148;2023-02-07T13:20:14;23.50;43.10
62589;DHT22;58504;48.770;9.148;2023-02-07T13:22:47;23.50;43.30
62589;DHT22;58504;48.770;9.148;2023-02-07T13:25:21;23.50;43.50
62589;DHT22;58504;48.770;9.148;2023-02-07T13:27:51;23.50;43.70
62589;DHT22;58504;48.770;9.148;2023-02-07T13:30:22;23.60;43.80
62589;DHT22;58504;48.770;9.148;2023-02-07T13:32:51;23.50;43.70
62589;DHT22;58504;48.770;9.148;2023-02-07T13:35:22;23.50;43.90
62589;DHT22;58504;48.770;9.148;2023-02-07T13:37:54;23.50;43.80
62589;DHT22;58504;48.770;9.148;2023-02-07T13:40:31;23.50;44.00
62589;DHT22;58504;48.770;9.148;2023-02-07T13:43:06;23.50;44.00
62589;DHT22;58504;48.770;9.148;2023-02-07T13:45:44;23.40;44.00
62589;DHT22;58504;48.770;9.148;2023-02-07T13:48:20;23.40;43.70
62589;DHT22;58504;48.770;9.148;2023-02-07T13:50:57;23.30;43.70
62589;DHT22;58504;48.770;9.148;2023-02-07T13:53:43;23.20;43.70
62589;DHT22;58504;48.770;9.148;2023-02-07T13:56:10;23.10;43.80
62589;DHT22;58504;48.770;9.148;2023-02-07T13:58:58;23.10;43.90
62589;DHT22;58504;48.770;9.148;2023-02-07T14:01:52;23.00;43.80
62589;DHT22;58504;48.770;9.148;2023-02-07T14:04:21;23.00;44.00
62589;DHT22;58504;48.770;9.148;2023-02-07T14:07:01;23.00;44.20
62589;DHT22;58504;48.770;9.148;2023-02-07T14:09:32;22.90;44.20
62589;DHT22;58504;48.770;9.148;2023-02-07T14:12:02;23.10;44.30
62589;DHT22;58504;48.770;9.148;2023-02-07T14:14:31;23.50;43.90
62589;DHT22;58504;48.770;9.148;2023-02-07T14:17:00;23.90;43.60
62589;DHT22;58504;48.770;9.148;2023-02-07T14:19:46;24.30;42.80
62589;DHT22;58504;48.770;9.148;2023-02-07T14:22:15;24.70;42.40
62589;DHT22;58504;48.770;9.148;2023-02-07T14:24:48;25.00;41.60
62589;DHT22;58504;48.770;9.148;2023-02-07T14:27:30;25.30;41.20
62589;DHT22;58504;48.770;9.148;2023-02-07T14:30:18;25.50;40.90
62589;DHT22;58504;48.770;9.148;2023-02-07T14:33:08;25.60;40.80
62589;DHT22;58504;48.770;9.148;2023-02-07T14:35:36;25.60;40.80
62589;DHT22;58504;48.770;9.148;2023-02-07T14:38:21;25.50;41.00
62589;DHT22;58504;48.770;9.148;2023-02-07T14:40:53;25.40;41.20
62589;DHT22;58504;48.770;9.148;2023-02-07T14:43:24;25.30;41.50
62589;DHT22;58504;48.770;9.148;2023-02-07T14:46:02;25.20;41.70
62589;DHT22;58504;48.770;9.148;2023-02-07T14:48:43;25.10;42.00
62589;DHT22;58504;48.770;9.148;2023-02-07T14:51:13;25.00;42.40
62589;DHT22;58504;48.770;9.148;2023-02-07T14:53:41;24.90;42.70
62589;DHT22;58504;48.770;9.148;2023-02-07T14:56:20;24.80;42.80
62589;DHT22;58504;48.770;9.148;2023-02-07T14:58:53;24.70;43.00
62589;DHT22;58504;48.770;9.148;2023-02-07T15:01:23;24.60;43.10
62589;DHT22;58504;48.770;9.148;2023-02-07T15:04:01;24.50;43.20
62589;DHT22;58504;48.770;9.148;2023-02-07T15:06:35;24.30;43.70
62589;DHT22;58504;48.770;9.148;2023-02-07T15:09:03;24.20;43.90
62589;DHT22;58504;48.770;9.148;2023-02-07T15:11:30;24.10;44.20
62589;DHT22;58504;48.770;9.148;2023-02-07T15:13:59;24.30;44.40
62589;DHT22;58504;48.770;9.148;2023-02-07T15:16:29;24.40;43.80
62589;DHT22;58504;48.770;9.148;2023-02-07T15:19:02;24.70;43.30
62589;DHT22;58504;48.770;9.148;2023-02-07T15:21:34;24.90;42.90
62589;DHT22;58504;48.770;9.148;2023-02-07T15:24:04;25.10;42.60
62589;DHT22;58504;48.770;9.148;2023-02-07T15:26:33;25.30;42.40
62589;DHT22;58504;48.770;9.148;2023-02-07T15:29:02;25.40;42.00
62589;DHT22;58504;48.770;9.148;2023-02-07T15:31:30;25.50;41.90
62589;DHT22;58504;48.770;9.148;2023-02-07T15:34:05;25.50;41.90
62589;DHT22;58504;48.770;9.148;2023-02-07T15:36:33;25.40;42.10
62589;DHT22;58504;48.770;9.148;2023-02-07T15:39:03;25.30;42.40
62589;DHT22;58504;48.770;9.148;2023-02-07T15:41:31;25.20;42.60
62589;DHT22;58504;48.770;9.148;2023-02-07T15:43:59;25.10;42.50
62589;DHT22;58504;48.770;9.148;2023-02-07T15:46:42;25.00;42.70
62589;DHT22;58504;48.770;9.148;2023-02-07T15:49:24;24.80;43.10
62589;DHT22;58504;48.770;9.148;2023-02-07T15:51:51;24.70;43.20
62589;DHT22;58504;48.770;9.148;2023-02-07T15:54:18;24.60;43.50
62589;DHT22;58504;48.770;9.148;2023-02-07T15:56:48;24.40;43.70
62589;DHT22;58504;48.770;9.148;2023-02-07T15:59:26;24.30;43.80